sensor_id;sensor_type;location;lat;lon;timestamp;P1;durP1;ratioP1;P2;durP2;ratioP2
12459;SDS011;6295;49.452;8.466;2023-05-20T03:14:31;4.43;;;3.90;;
12459;SDS011;6295;49.452;8.466;2023-05-20T03:18:33;6.03;;;3.67;;
12459;SDS011;6295;49.452;8.466;2023-05-20T03:22:35;4.53;;;3.73;;
12459;SDS011;6295;49.452;8.466;2023-05-20T03:26:37;4.63;;;3.63;;
12459;SDS011;6295;49.452;8.466;2023-05-20T03:30:43;5.60;;;3.70;;
12459;SDS011;6295;49.452;8.466;2023-05-20T03:34:45;4.30;;;3.87;;
12459;SDS011;6295;49.452;8.466;2023-05-20T03:38:47;4.97;;;3.67;;
12459;SDS011;6295;49.452;8.466;2023-05-20T03:42:50;5.00;;;3.70;;
12459;SDS011;6295;49.452;8.466;2023-05-20T03:46:53;4.20;;;3.80;;
12459;SDS011;6295;49.452;8.466;2023-05-20T03:50:55;4.20;;;3.80;;
12459;SDS011;6295;49.452;8.466;2023-05-20T03:54:57;5.07;;;3.80;;
12459;SDS011;6295;49.452;8.466;2023-05-20T03:58:59;5.43;;;4.00;;
12459;SDS011;6295;49.452;8.466;2023-05-20T04:03:03;4.10;;;3.70;;
12459;SDS011;6295;49.452;8.466;2023-05-20T04:07:05;4.60;;;3.70;;
12459;SDS011;6295;49.452;8.466;2023-05-20T04:11:07;4.20;;;3.80;;
12459;SDS011;6295;49.452;8.466;2023-05-20T04:15:10;4.17;;;3.77;;
12459;SDS011;6295;49.452;8.466;2023-05-20T04:19:14;5.37;;;3.97;;
12459;SDS011;6295;49.452;8.466;2023-05-20T04:23:18;4.93;;;3.97;;
12459;SDS011;6295;49.452;8.466;2023-05-20T04:27:20;4.80;;;3.90;;
12459;SDS011;6295;49.452;8.466;2023-05-20T04:31:22;5.37;;;4.17;;
12459;SDS011;6295;49.452;8.466;2023-05-20T04:35:27;6.30;;;4.07;;
12459;SDS011;6295;49.452;8.466;2023-05-20T04:39:29;4.93;;;3.97;;
12459;SDS011;6295;49.452;8.466;2023-05-20T04:43:32;5.67;;;4.10;;
12459;SDS011;6295;49.452;8.466;2023-05-20T04:47:34;4.57;;;3.87;;
12459;SDS011;6295;49.452;8.466;2023-05-20T04:51:39;5.10;;;4.20;;
12459;SDS011;6295;49.452;8.466;2023-05-20T04:55:44;6.00;;;4.13;;
12459;SDS011;6295;49.452;8.466;2023-05-20T04:59:47;5.93;;;4.30;;
12459;SDS011;6295;49.452;8.466;2023-05-20T05:03:49;5.00;;;4.30;;
12459;SDS011;6295;49.452;8.466;2023-05-20T05:07:52;6.00;;;4.50;;
12459;SDS011;6295;49.452;8.466;2023-05-20T05:11:54;4.43;;;4.03;;
12459;SDS011;6295;49.452;8.466;2023-05-20T05:15:57;5.20;;;4.53;;
12459;SDS011;6295;49.452;8.466;2023-05-20T05:19:59;5.37;;;4.47;;
12459;SDS011;6295;49.452;8.466;2023-05-20T05:24:03;4.70;;;4.13;;
12459;SDS011;6295;49.452;8.466;2023-05-20T05:28:05;5.83;;;3.97;;
12459;SDS011;6295;49.452;8.466;2023-05-20T05:32:07;5.07;;;4.07;;
12459;SDS011;6295;49.452;8.466;2023-05-20T05:36:09;7.67;;;4.27;;
12459;SDS011;6295;49.452;8.466;2023-05-20T05:40:13;4.70;;;4.20;;
12459;SDS011;6295;49.452;8.466;2023-05-20T05:44:16;6.63;;;4.50;;
12459;SDS011;6295;49.452;8.466;2023-05-20T05:48:18;5.00;;;4.50;;
12459;SDS011;6295;49.452;8.466;2023-05-20T05:52:20;4.87;;;4.37;;
12459;SDS011;6295;49.452;8.466;2023-05-20T05:56:23;5.77;;;4.60;;
12459;SDS011;6295;49.452;8.466;2023-05-20T06:00:25;5.47;;;4.90;;
12459;SDS011;6295;49.452;8.466;2023-05-20T06:04:27;6.57;;;4.73;;
12459;SDS011;6295;49.452;8.466;2023-05-20T06:08:30;6.40;;;4.37;;
12459;SDS011;6295;49.452;8.466;2023-05-20T06:12:35;5.63;;;5.13;;
12459;SDS011;6295;49.452;8.466;2023-05-20T06:16:39;6.67;;;4.97;;
12459;SDS011;6295;49.452;8.466;2023-05-20T06:20:41;5.30;;;4.50;;
12459;SDS011;6295;49.452;8.466;2023-05-20T06:24:43;5.30;;;4.80;;
12459;SDS011;6295;49.452;8.466;2023-05-20T06:28:47;5.97;;;5.13;;
12459;SDS011;6295;49.452;8.466;2023-05-20T06:32:49;5.23;;;4.73;;
12459;SDS011;6295;49.452;8.466;2023-05-20T06:36:51;6.13;;;4.70;;
12459;SDS011;6295;49.452;8.466;2023-05-20T06:40:55;5.23;;;4.73;;
12459;SDS011;6295;49.452;8.466;2023-05-20T06:44:58;5.37;;;4.87;;
12459;SDS011;6295;49.452;8.466;2023-05-20T06:49:02;4.97;;;4.57;;
12459;SDS011;6295;49.452;8.466;2023-05-20T06:53:07;5.90;;;5.10;;
12459;SDS011;6295;49.452;8.466;2023-05-20T06:57:10;5.23;;;4.70;;
12459;SDS011;6295;49.452;8.466;2023-05-20T07:01:13;5.30;;;4.80;;
12459;SDS011;6295;49.452;8.466;2023-05-20T07:05:15;5.67;;;5.07;;
12459;SDS011;6295;49.452;8.466;2023-05-20T07:09:18;4.87;;;4.43;;
12459;SDS011;6295;49.452;8.466;2023-05-20T07:13:20;7.43;;;4.90;;
12459;SDS011;6295;49.452;8.466;2023-05-20T07:17:24;6.13;;;5.30;;
12459;SDS011;6295;49.452;8.466;2023-05-20T07:21:28;7.03;;;5.20;;
12459;SDS011;6295;49.452;8.466;2023-05-20T07:25:30;8.27;;;5.10;;
12459;SDS011;6295;49.452;8.466;2023-05-20T07:29:32;6.37;;;5.57;;
12459;SDS011;6295;49.452;8.466;2023-05-20T07:33:36;6.50;;;5.80;;
12459;SDS011;6295;49.452;8.466;2023-05-20T07:37:38;6.00;;;5.40;;
12459;SDS011;6295;49.452;8.466;2023-05-20T07:41:40;6.30;;;5.70;;
12459;SDS011;6295;49.452;8.466;2023-05-20T07:45:43;6.07;;;5.47;;
12459;SDS011;6295;49.452;8.466;2023-05-20T07:49:46;6.43;;;5.60;;
12459;SDS011;6295;49.452;8.466;2023-05-20T07:53:48;7.10;;;5.93;;
12459;SDS011;6295;49.452;8.466;2023-05-20T07:57:51;6.10;;;5.53;;
12459;SDS011;6295;49.452;8.466;2023-05-20T08:01:54;6.43;;;5.80;;
12459;SDS011;6295;49.452;8.466;2023-05-20T08:05:58;6.33;;;5.70;;
12459;SDS011;6295;49.452;8.466;2023-05-20T08:10:02;5.43;;;4.93;;
12459;SDS011;6295;49.452;8.466;2023-05-20T08:14:06;6.20;;;5.30;;
12459;SDS011;6295;49.452;8.466;2023-05-20T08:18:08;7.93;;;5.80;;
12459;SDS011;6295;49.452;8.466;2023-05-20T08:22:12;6.33;;;5.73;;
12459;SDS011;6295;49.452;8.466;2023-05-20T08:26:14;6.30;;;5.70;;
12459;SDS011;6295;49.452;8.466;2023-05-20T08:30:16;6.03;;;5.53;;
12459;SDS011;6295;49.452;8.466;2023-05-20T08:34:18;6.40;;;5.80;;
12459;SDS011;6295;49.452;8.466;2023-05-20T08:38:22;6.43;;;5.80;;
12459;SDS011;6295;49.452;8.466;2023-05-20T08:42:24;7.17;;;6.07;;
12459;SDS011;6295;49.452;8.466;2023-05-20T08:46:26;5.97;;;5.47;;
12459;SDS011;6295;49.452;8.466;2023-05-20T08:50:29;7.33;;;5.53;;
12459;SDS011;6295;49.452;8.466;2023-05-20T08:54:35;6.37;;;5.83;;
12459;SDS011;6295;49.452;8.466;2023-05-20T08:58:44;6.63;;;6.03;;
12459;SDS011;6295;49.452;8.466;2023-05-20T09:02:46;6.60;;;5.90;;
12459;SDS011;6295;49.452;8.466;2023-05-20T09:06:49;6.77;;;6.17;;
12459;SDS011;6295;49.452;8.466;2023-05-20T09:10:53;6.67;;;5.97;;
12459;SDS011;6295;49.452;8.466;2023-05-20T09:14:55;6.83;;;6.13;;
12459;SDS011;6295;49.452;8.466;2023-05-20T09:18:57;6.10;;;5.50;;
12459;SDS011;6295;49.452;8.466;2023-05-20T09:22:59;6.50;;;5.90;;
12459;SDS011;6295;49.452;8.466;2023-05-20T09:27:04;6.60;;;6.00;;
12459;SDS011;6295;49.452;8.466;2023-05-20T09:31:08;6.47;;;5.87;;
12459;SDS011;6295;49.452;8.466;2023-05-20T09:35:16;6.67;;;6.07;;
12459;SDS011;6295;49.452;8.466;2023-05-20T09:39:19;6.87;;;6.17;;
12459;SDS011;6295;49.452;8.466;2023-05-20T09:43:27;6.73;;;6.13;;
12459;SDS011;6295;49.452;8.466;2023-05-20T09:47:29;7.03;;;6.40;;
12459;SDS011;6295;49.452;8.466;2023-05-20T09:51:32;7.50;;;6.77;;
12459;SDS011;6295;49.452;8.466;2023-05-20T09:55:35;6.80;;;5.77;;
12459;SDS011;6295;49.452;8.466;2023-05-20T09:59:41;6.60;;;5.97;;
12459;SDS011;6295;49.452;8.466;2023-05-20T10:03:44;7.50;;;6.50;;
12459;SDS011;6295;49.452;8.466;2023-05-20T10:12:05;7.10;;;6.10;;
12459;SDS011;6295;49.452;8.466;2023-05-20T10:16:16;7.23;;;6.60;;
12459;SDS011;6295;49.452;8.466;2023-05-20T10:20:29;7.17;;;6.57;;
12459;SDS011;6295;49.452;8.466;2023-05-20T10:24:31;7.00;;;6.30;;
12459;SDS011;6295;49.452;8.466;2023-05-20T10:28:34;7.07;;;6.47;;
12459;SDS011;6295;49.452;8.466;2023-05-20T10:32:47;7.37;;;6.27;;
12459;SDS011;6295;49.452;8.466;2023-05-20T10:36:59;6.83;;;6.23;;
12459;SDS011;6295;49.452;8.466;2023-05-20T10:41:06;7.70;;;7.00;;
12459;SDS011;6295;49.452;8.466;2023-05-20T10:45:10;7.57;;;6.97;;
12459;SDS011;6295;49.452;8.466;2023-05-20T10:49:17;7.13;;;6.53;;
12459;SDS011;6295;49.452;8.466;2023-05-20T10:53:20;8.17;;;6.30;;
12459;SDS011;6295;49.452;8.466;2023-05-20T10:57:24;7.13;;;6.53;;
12459;SDS011;6295;49.452;8.466;2023-05-20T11:01:27;7.37;;;6.77;;
12459;SDS011;6295;49.452;8.466;2023-05-20T11:05:33;7.13;;;6.50;;
12459;SDS011;6295;49.452;8.466;2023-05-20T11:09:48;7.87;;;6.93;;
12459;SDS011;6295;49.452;8.466;2023-05-20T11:13:52;7.20;;;6.40;;
12459;SDS011;6295;49.452;8.466;2023-05-20T11:17:59;7.50;;;6.90;;
12459;SDS011;6295;49.452;8.466;2023-05-20T11:22:04;7.43;;;6.80;;
12459;SDS011;6295;49.452;8.466;2023-05-20T11:26:08;7.23;;;6.60;;
12459;SDS011;6295;49.452;8.466;2023-05-20T11:30:10;7.30;;;6.70;;
12459;SDS011;6295;49.452;8.466;2023-05-20T11:34:18;7.50;;;6.80;;
12459;SDS011;6295;49.452;8.466;2023-05-20T11:38:23;7.13;;;6.47;;
12459;SDS011;6295;49.452;8.466;2023-05-20T11:42:26;7.60;;;7.00;;
12459;SDS011;6295;49.452;8.466;2023-05-20T11:46:28;8.27;;;7.30;;
12459;SDS011;6295;49.452;8.466;2023-05-20T11:50:33;7.90;;;7.07;;
12459;SDS011;6295;49.452;8.466;2023-05-20T11:54:37;7.40;;;6.70;;
12459;SDS011;6295;49.452;8.466;2023-05-20T11:58:39;7.37;;;6.67;;
12459;SDS011;6295;49.452;8.466;2023-05-20T12:02:45;7.83;;;7.13;;
12459;SDS011;6295;49.452;8.466;2023-05-20T12:06:50;7.60;;;6.83;;
12459;SDS011;6295;49.452;8.466;2023-05-20T12:10:56;7.60;;;6.77;;
12459;SDS011;6295;49.452;8.466;2023-05-20T12:14:58;7.70;;;7.00;;
12459;SDS011;6295;49.452;8.466;2023-05-20T12:19:00;8.40;;;7.70;;
12459;SDS011;6295;49.452;8.466;2023-05-20T12:23:02;8.20;;;7.50;;
12459;SDS011;6295;49.452;8.466;2023-05-20T12:27:06;8.47;;;7.47;;
12459;SDS011;6295;49.452;8.466;2023-05-20T12:31:09;7.27;;;6.67;;
12459;SDS011;6295;49.452;8.466;2023-05-20T12:35:13;8.20;;;7.40;;
12459;SDS011;6295;49.452;8.466;2023-05-20T12:39:16;8.07;;;7.40;;
12459;SDS011;6295;49.452;8.466;2023-05-20T12:43:25;8.37;;;7.10;;
12459;SDS011;6295;49.452;8.466;2023-05-20T12:47:30;8.57;;;7.77;;
12459;SDS011;6295;49.452;8.466;2023-05-20T12:51:33;7.27;;;6.67;;
12459;SDS011;6295;49.452;8.466;2023-05-20T12:55:35;7.67;;;7.03;;
12459;SDS011;6295;49.452;8.466;2023-05-20T12:59:39;8.10;;;7.10;;
12459;SDS011;6295;49.452;8.466;2023-05-20T13:03:42;9.17;;;8.27;;
12459;SDS011;6295;49.452;8.466;2023-05-20T13:07:48;8.27;;;7.47;;
12459;SDS011;6295;49.452;8.466;2023-05-20T13:11:50;8.37;;;7.67;;
12459;SDS011;6295;49.452;8.466;2023-05-20T13:15:56;8.50;;;7.70;;
12459;SDS011;6295;49.452;8.466;2023-05-20T13:20:00;8.03;;;7.23;;
12459;SDS011;6295;49.452;8.466;2023-05-20T13:24:03;7.80;;;7.00;;
12459;SDS011;6295;49.452;8.466;2023-05-20T13:28:06;8.23;;;7.47;;
12459;SDS011;6295;49.452;8.466;2023-05-20T13:32:10;7.80;;;7.10;;
12459;SDS011;6295;49.452;8.466;2023-05-20T13:36:12;8.00;;;7.30;;
12459;SDS011;6295;49.452;8.466;2023-05-20T13:40:15;7.67;;;7.07;;
12459;SDS011;6295;49.452;8.466;2023-05-20T13:44:19;8.37;;;7.57;;
12459;SDS011;6295;49.452;8.466;2023-05-20T13:48:22;8.63;;;7.83;;
12459;SDS011;6295;49.452;8.466;2023-05-20T13:52:24;8.43;;;7.50;;
12459;SDS011;6295;49.452;8.466;2023-05-20T13:56:27;8.00;;;7.27;;
12459;SDS011;6295;49.452;8.466;2023-05-20T14:00:29;7.83;;;7.13;;
12459;SDS011;6295;49.452;8.466;2023-05-20T14:04:33;8.30;;;7.50;;
12459;SDS011;6295;49.452;8.466;2023-05-20T14:08:37;7.60;;;6.93;;
12459;SDS011;6295;49.452;8.466;2023-05-20T14:12:40;8.17;;;7.47;;
12459;SDS011;6295;49.452;8.466;2023-05-20T14:16:47;8.33;;;7.57;;
12459;SDS011;6295;49.452;8.466;2023-05-20T14:20:55;8.40;;;7.70;;
12459;SDS011;6295;49.452;8.466;2023-05-20T14:24:59;8.47;;;7.67;;
12459;SDS011;6295;49.452;8.466;2023-05-20T14:29:01;8.70;;;8.00;;
12459;SDS011;6295;49.452;8.466;2023-05-20T14:33:03;8.63;;;7.93;;
12459;SDS011;6295;49.452;8.466;2023-05-20T14:37:07;8.10;;;7.40;;
12459;SDS011;6295;49.452;8.466;2023-05-20T14:41:11;8.37;;;7.67;;
12459;SDS011;6295;49.452;8.466;2023-05-20T14:45:13;9.60;;;7.67;;
12459;SDS011;6295;49.452;8.466;2023-05-20T14:49:15;8.43;;;7.73;;
12459;SDS011;6295;49.452;8.466;2023-05-20T14:53:18;10.47;;;9.37;;
12459;SDS011;6295;49.452;8.466;2023-05-20T14:57:21;8.20;;;7.40;;
12459;SDS011;6295;49.452;8.466;2023-05-20T15:01:23;8.23;;;7.57;;
12459;SDS011;6295;49.452;8.466;2023-05-20T15:05:25;8.63;;;7.93;;
12459;SDS011;6295;49.452;8.466;2023-05-20T15:09:28;8.90;;;8.10;;
12459;SDS011;6295;49.452;8.466;2023-05-20T15:13:31;8.50;;;7.70;;
12459;SDS011;6295;49.452;8.466;2023-05-20T15:17:36;9.23;;;8.43;;
12459;SDS011;6295;49.452;8.466;2023-05-20T15:21:38;10.43;;;8.40;;
12459;SDS011;6295;49.452;8.466;2023-05-20T15:25:42;9.13;;;8.33;;
12459;SDS011;6295;49.452;8.466;2023-05-20T15:29:44;9.23;;;8.40;;
12459;SDS011;6295;49.452;8.466;2023-05-20T15:33:47;9.60;;;8.70;;
12459;SDS011;6295;49.452;8.466;2023-05-20T15:37:49;9.50;;;8.60;;
12459;SDS011;6295;49.452;8.466;2023-05-20T15:41:53;9.37;;;8.57;;
12459;SDS011;6295;49.452;8.466;2023-05-20T15:45:59;10.50;;;9.43;;
12459;SDS011;6295;49.452;8.466;2023-05-20T15:50:01;11.00;;;9.90;;
12459;SDS011;6295;49.452;8.466;2023-05-20T15:54:05;11.00;;;10.00;;
12459;SDS011;6295;49.452;8.466;2023-05-20T15:58:09;10.30;;;9.30;;
12459;SDS011;6295;49.452;8.466;2023-05-20T16:02:12;10.47;;;9.47;;
12459;SDS011;6295;49.452;8.466;2023-05-20T16:06:14;9.70;;;8.90;;
12459;SDS011;6295;49.452;8.466;2023-05-20T16:10:16;10.53;;;9.63;;
12459;SDS011;6295;49.452;8.466;2023-05-20T16:14:20;10.20;;;9.20;;
12459;SDS011;6295;49.452;8.466;2023-05-20T16:18:23;9.53;;;8.73;;
12459;SDS011;6295;49.452;8.466;2023-05-20T16:22:27;10.27;;;9.27;;
12459;SDS011;6295;49.452;8.466;2023-05-20T16:26:31;10.53;;;9.53;;
12459;SDS011;6295;49.452;8.466;2023-05-20T16:30:35;10.43;;;9.40;;
12459;SDS011;6295;49.452;8.466;2023-05-20T16:34:38;10.27;;;9.37;;
12459;SDS011;6295;49.452;8.466;2023-05-20T16:38:40;10.73;;;9.73;;
12459;SDS011;6295;49.452;8.466;2023-05-20T16:42:42;10.90;;;9.90;;
12459;SDS011;6295;49.452;8.466;2023-05-20T16:46:46;11.60;;;10.40;;
12459;SDS011;6295;49.452;8.466;2023-05-20T16:50:48;11.57;;;10.50;;
12459;SDS011;6295;49.452;8.466;2023-05-20T16:54:52;11.30;;;10.30;;
12459;SDS011;6295;49.452;8.466;2023-05-20T16:59:02;11.47;;;10.33;;
12459;SDS011;6295;49.452;8.466;2023-05-20T17:03:08;11.47;;;10.40;;
12459;SDS011;6295;49.452;8.466;2023-05-20T17:07:10;12.57;;;11.27;;
12459;SDS011;6295;49.452;8.466;2023-05-20T17:11:12;13.03;;;11.53;;
12459;SDS011;6295;49.452;8.466;2023-05-20T17:15:15;11.90;;;10.83;;
12459;SDS011;6295;49.452;8.466;2023-05-20T17:19:18;12.43;;;11.33;;
12459;SDS011;6295;49.452;8.466;2023-05-20T17:23:20;11.87;;;10.77;;
12459;SDS011;6295;49.452;8.466;2023-05-20T17:27:22;11.93;;;10.80;;
12459;SDS011;6295;49.452;8.466;2023-05-20T17:31:25;11.80;;;10.80;;
12459;SDS011;6295;49.452;8.466;2023-05-20T17:35:28;12.73;;;11.30;;
12459;SDS011;6295;49.452;8.466;2023-05-20T17:39:30;13.63;;;11.53;;
12459;SDS011;6295;49.452;8.466;2023-05-20T17:43:32;11.67;;;10.47;;
12459;SDS011;6295;49.452;8.466;2023-05-20T17:47:34;12.77;;;11.57;;
12459;SDS011;6295;49.452;8.466;2023-05-20T17:51:38;12.00;;;10.90;;
12459;SDS011;6295;49.452;8.466;2023-05-20T17:55:41;13.20;;;11.33;;
12459;SDS011;6295;49.452;8.466;2023-05-20T17:59:46;12.27;;;11.17;;
12459;SDS011;6295;49.452;8.466;2023-05-20T18:03:52;12.33;;;11.20;;
12459;SDS011;6295;49.452;8.466;2023-05-20T18:08:02;12.33;;;11.13;;
12459;SDS011;6295;49.452;8.466;2023-05-20T18:12:07;12.33;;;11.23;;
12459;SDS011;6295;49.452;8.466;2023-05-20T18:16:11;12.73;;;11.50;;
12459;SDS011;6295;49.452;8.466;2023-05-20T18:20:14;12.37;;;11.07;;
12459;SDS011;6295;49.452;8.466;2023-05-20T18:24:17;13.17;;;11.87;;
12459;SDS011;6295;49.452;8.466;2023-05-20T18:28:19;12.87;;;11.47;;
12459;SDS011;6295;49.452;8.466;2023-05-20T18:32:23;14.10;;;11.83;;
12459;SDS011;6295;49.452;8.466;2023-05-20T18:36:29;12.30;;;11.20;;
12459;SDS011;6295;49.452;8.466;2023-05-20T18:40:33;13.17;;;11.97;;
12459;SDS011;6295;49.452;8.466;2023-05-20T18:44:35;13.23;;;11.93;;
12459;SDS011;6295;49.452;8.466;2023-05-20T18:48:37;13.73;;;12.27;;
12459;SDS011;6295;49.452;8.466;2023-05-20T18:52:40;17.13;;;12.70;;
